Terminal Aerodrome Forecast
Issued by NWS

Home | Current Version | Previous Version | Graphics & Text | Print | Product List | Glossary On
Versions: 1 2 3 4 5 6 7 8 9 10 11 12 13 14 15 16 17 18 19 20
263
FTUS43 KMPX 211737
TAFRNH
TAF
KRNH 211737Z 2118/2218 08006KT 5SM -SHRA BR OVC006
     FM212000 VRB02KT 3SM -DZ BR OVC004
     FM220200 00000KT 1/2SM FG VV002
     FM221500 VRB03KT 2SM BR OVC003=

USA.gov is the U.S. government's official web portal to all federal, state and local government web resources and services.